Terminal Aerodrome Forecast
Issued by NWS Shreveport, LA

Home | Current Version | Previous Version | Text Only | Print | Product List | Glossary On
Versions: 1 2 3 4 5 6 7 8 9 10 11 12 13 14 15 16 17
834
FTUS44 KSHV 260003 RRA
TAFGGG
TAF
KGGG 260003Z 2600/2624 VRB05KT P6SM SCT050 BKN120
     FM260200 17005KT P6SM FEW050 SCT120
     FM261100 19008KT 5SM BR VCTS SCT035CB BKN090
     FM261400 20007KT P6SM FEW040 BKN090
     FM262000 23006KT P6SM SCT090 SCT250=

USA.gov is the U.S. government's official web portal to all federal, state and local government web resources and services.